Time;durP1;ratioP1;P1;durP2;ratioP2;P2;SDS_P1;SDS_P2;PMS_P1;PMS_P2;Temp;Humidity;BMP_temperature;BMP_pressure;BME280_temperature;BME280_humidity;BME280_pressure;Samples;Min_cycle;Max_cycle;Signal;HPM_P1;HPM_P2
2022/10/13 00:02:02;;;;;;;19.73;14.43;;;;;;;;;;5093774;28;20196;-67
2022/10/13 00:04:29;;;;;;;20.33;14.73;;;;;;;;;;5093298;28;20200;-68
2022/10/13 00:06:58;;;;;;;25.25;16.20;;;;;;;;;;5093645;28;20193;-67
2022/10/13 00:09:25;;;;;;;25.98;15.13;;;;;;;;;;5093448;28;20196;-67
2022/10/13 00:11:52;;;;;;;25.85;15.80;;;;;;;;;;5093412;28;20337;-67
2022/10/13 00:14:19;;;;;;;26.98;16.95;;;;;;;;;;5093975;28;20190;-67
2022/10/13 00:16:46;;;;;;;22.50;15.80;;;;;;;;;;5093404;28;20196;-68
2022/10/13 00:19:13;;;;;;;23.92;17.63;;;;;;;;;;5093644;28;20224;-67
2022/10/13 00:21:41;;;;;;;23.15;15.82;;;;;;;;;;5093571;28;20198;-68
2022/10/13 00:24:11;;;;;;;21.63;16.10;;;;;;;;;;5093267;28;20228;-67
2022/10/13 00:26:38;;;;;;;23.33;15.68;;;;;;;;;;5093027;28;20184;-67
2022/10/13 00:29:06;;;;;;;22.48;16.30;;;;;;;;;;5092959;28;20203;-67
2022/10/13 00:31:33;;;;;;;17.60;13.63;;;;;;;;;;5093296;28;20191;-68
2022/10/13 00:34:01;;;;;;;26.20;16.27;;;;;;;;;;5093386;28;20199;-67
2022/10/13 00:36:29;;;;;;;23.80;17.23;;;;;;;;;;5092937;28;20201;-67
2022/10/13 00:38:57;;;;;;;26.40;17.30;;;;;;;;;;5094522;28;20217;-67
2022/10/13 00:41:25;;;;;;;33.58;19.13;;;;;;;;;;5096809;28;20203;-68
2022/10/13 00:43:56;;;;;;;23.42;16.77;;;;;;;;;;5097177;28;20196;-67
2022/10/13 00:46:24;;;;;;;27.67;16.45;;;;;;;;;;5097639;28;20233;-68
2022/10/13 00:48:51;;;;;;;27.63;18.48;;;;;;;;;;5097540;28;20284;-67
2022/10/13 00:51:20;;;;;;;30.20;18.42;;;;;;;;;;5097001;28;20200;-68
2022/10/13 00:53:48;;;;;;;28.67;18.40;;;;;;;;;;5096973;28;20192;-67
2022/10/13 00:56:17;;;;;;;30.88;18.58;;;;;;;;;;5096484;28;20284;-68
2022/10/13 00:58:46;;;;;;;29.63;17.00;;;;;;;;;;5096872;28;20669;-67
2022/10/13 01:01:13;;;;;;;24.92;17.50;;;;;;;;;;5096417;28;20192;-68
2022/10/13 01:03:41;;;;;;;29.08;19.15;;;;;;;;;;5096867;28;20277;-68
2022/10/13 01:06:08;;;;;;;25.45;16.73;;;;;;;;;;5096524;28;20198;-68
2022/10/13 01:08:35;;;;;;;27.00;17.15;;;;;;;;;;5096675;28;20253;-67
2022/10/13 01:11:10;;;;;;;28.17;19.02;;;;;;;;;;5096188;28;20196;-68
2022/10/13 01:13:40;;;;;;;27.58;17.48;;;;;;;;;;5096450;28;20238;-67
2022/10/13 01:16:13;;;;;;;22.35;17.55;;;;;;;;;;5096109;28;20649;-68
2022/10/13 01:18:46;;;;;;;27.60;19.20;;;;;;;;;;5096782;28;20208;-67
2022/10/13 01:21:20;;;;;;;25.45;20.15;;;;;;;;;;5096847;28;20188;-68
2022/10/13 01:24:06;;;;;;;27.70;18.73;;;;;;;;;;5096142;28;20239;-67
2022/10/13 01:26:48;;;;;;;30.15;18.20;;;;;;;;;;5095910;28;20656;-68
2022/10/13 01:29:28;;;;;;;28.33;16.58;;;;;;;;;;5096523;28;20190;-68
2022/10/13 01:32:01;;;;;;;29.58;18.52;;;;;;;;;;5096235;28;20193;-68
2022/10/13 01:34:32;;;;;;;27.38;18.17;;;;;;;;;;5096612;28;20520;-67
2022/10/13 01:37:04;;;;;;;31.95;19.27;;;;;;;;;;5096455;28;20201;-68
2022/10/13 01:39:35;;;;;;;26.48;18.90;;;;;;;;;;5096105;28;20576;-68
2022/10/13 01:42:10;;;;;;;26.23;18.45;;;;;;;;;;5096079;28;20189;-68
2022/10/13 01:44:38;;;;;;;29.30;18.88;;;;;;;;;;5095819;28;20222;-67
2022/10/13 01:47:08;;;;;;;30.08;21.02;;;;;;;;;;5095965;28;20197;-67
2022/10/13 01:49:36;;;;;;;30.15;19.35;;;;;;;;;;5095034;28;20211;-67
2022/10/13 01:52:05;;;;;;;31.98;19.77;;;;;;;;;;5095412;28;20622;-68
2022/10/13 01:54:33;;;;;;;31.70;20.67;;;;;;;;;;5095832;28;20199;-67
2022/10/13 01:57:00;;;;;;;31.38;19.25;;;;;;;;;;5095833;28;20655;-67
2022/10/13 01:59:29;;;;;;;26.08;19.15;;;;;;;;;;5095726;28;20213;-67
2022/10/13 02:02:01;;;;;;;28.48;19.65;;;;;;;;;;5095621;28;20232;-67
2022/10/13 02:04:37;;;;;;;33.00;19.75;;;;;;;;;;5095806;28;20195;-67
2022/10/13 02:07:09;;;;;;;31.42;18.63;;;;;;;;;;5095983;28;20193;-68
2022/10/13 02:09:40;;;;;;;33.03;19.30;;;;;;;;;;5095320;28;20186;-67
2022/10/13 02:12:09;;;;;;;28.20;19.48;;;;;;;;;;5095467;28;20190;-68
2022/10/13 02:14:38;;;;;;;33.25;19.23;;;;;;;;;;5095678;28;20220;-68
2022/10/13 02:17:06;;;;;;;32.75;18.98;;;;;;;;;;5095435;28;20550;-68
2022/10/13 02:19:36;;;;;;;26.83;18.95;;;;;;;;;;5095249;28;20554;-68
2022/10/13 02:22:04;;;;;;;30.08;20.08;;;;;;;;;;5095154;28;20208;-68
2022/10/13 02:24:32;;;;;;;36.22;19.63;;;;;;;;;;5095165;28;20225;-68
2022/10/13 02:26:59;;;;;;;35.22;21.92;;;;;;;;;;5095619;28;20197;-68
2022/10/13 02:29:26;;;;;;;28.90;18.40;;;;;;;;;;5095110;28;20209;-68
2022/10/13 02:31:53;;;;;;;32.10;20.83;;;;;;;;;;5095351;28;20193;-67
2022/10/13 02:34:21;;;;;;;29.83;19.42;;;;;;;;;;5094771;28;20558;-67
2022/10/13 02:36:49;;;;;;;31.67;20.33;;;;;;;;;;5095438;28;20218;-68
2022/10/13 02:39:17;;;;;;;29.58;19.23;;;;;;;;;;5094484;28;20220;-68
2022/10/13 02:41:45;;;;;;;34.35;22.60;;;;;;;;;;5095404;28;20197;-68
2022/10/13 02:44:12;;;;;;;26.27;18.50;;;;;;;;;;5094832;28;20193;-68
2022/10/13 02:46:39;;;;;;;30.50;20.00;;;;;;;;;;5094931;28;20207;-68
2022/10/13 02:49:06;;;;;;;30.85;20.15;;;;;;;;;;5094725;28;20200;-66
2022/10/13 02:51:33;;;;;;;29.63;19.85;;;;;;;;;;5094730;28;20203;-67
2022/10/13 02:54:02;;;;;;;32.78;19.52;;;;;;;;;;5094743;28;20204;-68
2022/10/13 02:56:29;;;;;;;31.60;20.23;;;;;;;;;;5094868;28;20196;-67
2022/10/13 02:58:56;;;;;;;32.35;21.67;;;;;;;;;;5094415;28;20217;-67
2022/10/13 03:01:23;;;;;;;29.65;20.60;;;;;;;;;;5094094;28;20198;-67
2022/10/13 03:03:51;;;;;;;29.15;21.10;;;;;;;;;;5094466;28;20189;-67
2022/10/13 03:06:18;;;;;;;28.70;19.42;;;;;;;;;;5094070;28;20197;-67
2022/10/13 03:08:45;;;;;;;28.88;20.30;;;;;;;;;;5094024;28;20197;-69
2022/10/13 03:11:14;;;;;;;33.25;21.50;;;;;;;;;;5094438;28;20539;-67
2022/10/13 03:13:41;;;;;;;36.67;21.15;;;;;;;;;;5094294;28;20203;-68
2022/10/13 03:16:09;;;;;;;35.65;20.05;;;;;;;;;;5094054;28;20200;-67
2022/10/13 03:18:36;;;;;;;29.85;19.50;;;;;;;;;;5093742;28;20708;-68
2022/10/13 03:21:05;;;;;;;31.20;19.38;;;;;;;;;;5094721;28;20643;-67
2022/10/13 03:23:32;;;;;;;29.60;18.40;;;;;;;;;;5093896;28;20292;-68
2022/10/13 03:25:59;;;;;;;29.05;19.00;;;;;;;;;;5094693;28;20434;-67
2022/10/13 03:28:28;;;;;;;31.00;18.33;;;;;;;;;;5093810;28;20198;-68
2022/10/13 03:31:00;;;;;;;25.33;18.50;;;;;;;;;;5094033;28;20455;-67
2022/10/13 03:33:27;;;;;;;32.75;19.75;;;;;;;;;;5094092;28;20182;-67
2022/10/13 03:35:54;;;;;;;30.60;19.00;;;;;;;;;;5093880;28;20193;-68
2022/10/13 03:38:22;;;;;;;36.00;20.80;;;;;;;;;;5093661;28;21015;-66
2022/10/13 03:40:49;;;;;;;27.48;19.77;;;;;;;;;;5094046;28;20439;-66
2022/10/13 03:43:16;;;;;;;29.33;18.50;;;;;;;;;;5093471;28;20275;-66
2022/10/13 03:45:44;;;;;;;30.08;19.13;;;;;;;;;;5094359;28;20447;-67
2022/10/13 03:48:12;;;;;;;27.83;18.60;;;;;;;;;;5093409;28;20204;-65
2022/10/13 03:50:39;;;;;;;31.17;19.38;;;;;;;;;;5093468;28;20215;-65
2022/10/13 03:53:06;;;;;;;28.70;19.03;;;;;;;;;;5092542;28;20802;-65
2022/10/13 03:55:33;;;;;;;30.57;19.10;;;;;;;;;;5092680;28;20544;-66
2022/10/13 03:58:01;;;;;;;30.13;19.60;;;;;;;;;;5092938;28;20431;-65
2022/10/13 04:00:28;;;;;;;33.60;19.77;;;;;;;;;;5093034;28;20475;-65
2022/10/13 04:02:59;;;;;;;30.00;21.20;;;;;;;;;;5094008;28;20203;-65
2022/10/13 04:05:28;;;;;;;28.33;20.50;;;;;;;;;;5093030;28;20444;-65
2022/10/13 04:07:58;;;;;;;25.87;18.07;;;;;;;;;;5093297;28;20446;-65
2022/10/13 04:10:27;;;;;;;31.77;20.25;;;;;;;;;;5093419;28;20546;-65
2022/10/13 04:12:54;;;;;;;34.55;22.55;;;;;;;;;;5093521;28;20247;-65
2022/10/13 04:15:21;;;;;;;35.20;20.70;;;;;;;;;;5097437;28;20248;-65
2022/10/13 04:17:49;;;;;;;28.43;20.47;;;;;;;;;;5097674;28;20441;-65
2022/10/13 04:20:18;;;;;;;27.10;18.03;;;;;;;;;;5097445;28;20482;-65
2022/10/13 04:22:45;;;;;;;34.35;19.92;;;;;;;;;;5097225;28;20937;-65
2022/10/13 04:25:13;;;;;;;28.30;19.23;;;;;;;;;;5097060;28;20224;-65
2022/10/13 04:27:40;;;;;;;28.08;18.00;;;;;;;;;;5097459;28;20447;-65
2022/10/13 04:30:08;;;;;;;25.35;17.90;;;;;;;;;;5097316;28;20560;-65
2022/10/13 04:32:35;;;;;;;27.95;20.25;;;;;;;;;;5097365;28;20204;-65
2022/10/13 04:35:02;;;;;;;28.48;18.15;;;;;;;;;;5097195;28;20189;-65
2022/10/13 04:37:31;;;;;;;32.22;18.83;;;;;;;;;;5096893;28;20221;-65
2022/10/13 04:39:58;;;;;;;26.52;18.55;;;;;;;;;;5097337;28;20576;-66
2022/10/13 04:42:25;;;;;;;27.73;18.00;;;;;;;;;;5097271;28;20202;-66
2022/10/13 04:44:52;;;;;;;28.73;17.63;;;;;;;;;;5097235;28;20439;-65
2022/10/13 04:47:19;;;;;;;24.17;17.90;;;;;;;;;;5097311;28;20195;-65
2022/10/13 04:49:46;;;;;;;29.52;19.70;;;;;;;;;;5096972;28;20439;-66
2022/10/13 04:52:14;;;;;;;26.63;17.70;;;;;;;;;;5097352;28;20292;-66
2022/10/13 04:54:43;;;;;;;34.60;19.23;;;;;;;;;;5097116;28;20201;-66
2022/10/13 04:57:10;;;;;;;31.20;17.10;;;;;;;;;;5097291;28;20450;-66
2022/10/13 04:59:37;;;;;;;27.38;18.17;;;;;;;;;;5096637;28;20481;-66
2022/10/13 05:02:05;;;;;;;33.37;19.20;;;;;;;;;;5096889;28;20197;-66
2022/10/13 05:04:32;;;;;;;24.52;18.15;;;;;;;;;;5096788;28;20793;-67
2022/10/13 05:06:59;;;;;;;28.42;18.13;;;;;;;;;;5096491;28;20195;-66
2022/10/13 05:09:27;;;;;;;32.05;19.50;;;;;;;;;;5097360;28;20562;-66
2022/10/13 05:11:56;;;;;;;35.80;18.88;;;;;;;;;;5096905;28;20226;-66
2022/10/13 05:14:23;;;;;;;29.13;18.47;;;;;;;;;;5096604;28;20650;-66
2022/10/13 05:16:50;;;;;;;29.43;17.50;;;;;;;;;;5096906;28;20467;-66
2022/10/13 05:19:17;;;;;;;40.85;19.05;;;;;;;;;;5096554;28;20483;-66
2022/10/13 05:21:45;;;;;;;31.77;19.08;;;;;;;;;;5097018;28;20566;-66
2022/10/13 05:24:14;;;;;;;31.58;22.38;;;;;;;;;;5095759;28;20232;-66
2022/10/13 05:26:41;;;;;;;35.17;19.20;;;;;;;;;;5096136;28;20659;-66
2022/10/13 05:29:10;;;;;;;31.80;19.80;;;;;;;;;;5096259;28;20450;-66
2022/10/13 05:31:37;;;;;;;34.10;19.83;;;;;;;;;;5096211;28;20193;-66
2022/10/13 05:34:04;;;;;;;35.42;18.65;;;;;;;;;;5096253;28;20542;-66
2022/10/13 05:36:32;;;;;;;37.70;18.33;;;;;;;;;;5096195;28;20639;-66
2022/10/13 05:39:01;;;;;;;32.37;18.63;;;;;;;;;;5095745;28;20454;-66
2022/10/13 05:41:28;;;;;;;34.00;17.90;;;;;;;;;;5095937;28;20472;-66
2022/10/13 05:43:58;;;;;;;35.07;18.90;;;;;;;;;;5095744;28;20447;-66
2022/10/13 05:46:26;;;;;;;31.20;19.77;;;;;;;;;;5095598;28;20501;-66
2022/10/13 05:48:54;;;;;;;34.63;21.00;;;;;;;;;;5095928;28;20453;-66
2022/10/13 05:51:22;;;;;;;33.95;20.48;;;;;;;;;;5096083;28;20201;-65
2022/10/13 05:53:50;;;;;;;33.28;21.77;;;;;;;;;;5095935;28;20201;-66
2022/10/13 05:56:19;;;;;;;25.10;17.53;;;;;;;;;;5095835;28;20196;-66
2022/10/13 05:58:49;;;;;;;35.65;19.63;;;;;;;;;;5095650;28;20454;-66
2022/10/13 06:01:18;;;;;;;29.67;20.20;;;;;;;;;;5095490;28;20221;-66
2022/10/13 06:03:47;;;;;;;27.53;18.90;;;;;;;;;;5095596;28;20457;-66
2022/10/13 06:06:14;;;;;;;29.60;19.80;;;;;;;;;;5095583;28;20448;-66
2022/10/13 06:08:41;;;;;;;30.60;18.47;;;;;;;;;;5095717;28;20440;-66
2022/10/13 06:11:09;;;;;;;27.10;17.90;;;;;;;;;;5095305;28;20451;-66
2022/10/13 06:13:36;;;;;;;27.45;17.92;;;;;;;;;;5096006;28;20448;-66
2022/10/13 06:16:03;;;;;;;31.90;19.03;;;;;;;;;;5095424;28;20552;-66
2022/10/13 06:18:31;;;;;;;31.53;19.50;;;;;;;;;;5095363;28;20436;-66
2022/10/13 06:20:59;;;;;;;29.27;19.67;;;;;;;;;;5095023;28;20479;-66
2022/10/13 06:23:26;;;;;;;31.47;19.13;;;;;;;;;;5095453;28;20435;-66
2022/10/13 06:25:54;;;;;;;28.42;17.75;;;;;;;;;;5095160;28;20794;-66
2022/10/13 06:28:21;;;;;;;38.47;21.40;;;;;;;;;;5095267;28;20229;-66
2022/10/13 06:30:53;;;;;;;28.50;19.17;;;;;;;;;;5095020;28;20447;-66
2022/10/13 06:33:20;;;;;;;27.50;17.80;;;;;;;;;;5095495;28;20429;-66
2022/10/13 06:35:48;;;;;;;25.97;18.17;;;;;;;;;;5094826;28;20440;-66
2022/10/13 06:38:16;;;;;;;33.80;20.57;;;;;;;;;;5094702;28;20447;-66
2022/10/13 06:40:43;;;;;;;25.20;18.20;;;;;;;;;;5094822;28;20483;-66
2022/10/13 06:43:11;;;;;;;28.98;18.30;;;;;;;;;;5094987;28;20450;-66
2022/10/13 06:45:38;;;;;;;25.67;18.48;;;;;;;;;;5095140;28;20189;-66
2022/10/13 06:48:05;;;;;;;27.23;16.37;;;;;;;;;;5095682;28;20194;-66
2022/10/13 06:50:33;;;;;;;23.83;16.57;;;;;;;;;;5094780;28;20520;-66
2022/10/13 06:53:00;;;;;;;30.60;17.03;;;;;;;;;;5094939;28;20470;-66
2022/10/13 06:55:28;;;;;;;32.00;18.60;;;;;;;;;;5094591;28;20465;-66
2022/10/13 06:57:55;;;;;;;22.83;16.80;;;;;;;;;;5094395;28;20446;-66
2022/10/13 07:00:23;;;;;;;21.63;16.90;;;;;;;;;;5094539;28;20483;-66
2022/10/13 07:02:51;;;;;;;24.23;17.50;;;;;;;;;;5094525;28;20439;-66
2022/10/13 07:05:18;;;;;;;22.90;16.30;;;;;;;;;;5094914;28;20458;-66
2022/10/13 07:07:46;;;;;;;29.20;16.53;;;;;;;;;;5094380;28;20440;-66
2022/10/13 07:10:13;;;;;;;23.40;16.00;;;;;;;;;;5094415;28;20447;-66
2022/10/13 07:12:42;;;;;;;33.07;18.60;;;;;;;;;;5094384;28;20446;-65
2022/10/13 07:15:09;;;;;;;36.60;17.10;;;;;;;;;;5094700;28;20793;-65
2022/10/13 07:17:37;;;;;;;19.60;16.00;;;;;;;;;;5094247;28;20450;-66
2022/10/13 07:20:05;;;;;;;24.40;17.97;;;;;;;;;;5094395;28;20475;-66
2022/10/13 07:22:32;;;;;;;30.20;17.43;;;;;;;;;;5093891;28;20535;-66
2022/10/13 07:25:00;;;;;;;29.20;16.87;;;;;;;;;;5094209;28;20471;-66
2022/10/13 07:27:27;;;;;;;26.13;16.20;;;;;;;;;;5094080;28;20496;-66
2022/10/13 07:29:56;;;;;;;24.47;17.67;;;;;;;;;;5094466;28;20457;-66
2022/10/13 07:32:23;;;;;;;24.90;17.13;;;;;;;;;;5093938;28;20447;-66
2022/10/13 07:34:53;;;;;;;29.00;15.23;;;;;;;;;;5093968;28;20443;-66
2022/10/13 07:37:20;;;;;;;27.47;16.40;;;;;;;;;;5094272;28;20451;-66
2022/10/13 07:39:47;;;;;;;20.90;16.80;;;;;;;;;;5093891;28;20446;-66
2022/10/13 07:42:16;;;;;;;21.53;15.90;;;;;;;;;;5094248;28;20443;-66
2022/10/13 07:44:43;;;;;;;23.33;15.30;;;;;;;;;;5093270;28;20478;-66
2022/10/13 07:47:11;;;;;;;20.70;15.40;;;;;;;;;;5093456;28;20473;-66
2022/10/13 07:49:39;;;;;;;23.60;14.83;;;;;;;;;;5093531;28;20444;-66
2022/10/13 07:52:06;;;;;;;25.63;15.87;;;;;;;;;;5093325;28;20448;-66
2022/10/13 07:54:33;;;;;;;27.90;15.60;;;;;;;;;;5093530;28;21012;-66
2022/10/13 07:57:00;;;;;;;23.07;15.20;;;;;;;;;;5093670;28;20444;-66
2022/10/13 07:59:27;;;;;;;25.00;15.60;;;;;;;;;;5093686;28;20538;-66
2022/10/13 08:01:55;;;;;;;22.33;16.57;;;;;;;;;;5093834;28;20479;-67
2022/10/13 08:04:24;;;;;;;18.90;15.77;;;;;;;;;;5093377;28;20448;-67
2022/10/13 08:06:51;;;;;;;16.40;14.53;;;;;;;;;;5093544;28;20455;-66
2022/10/13 08:09:18;;;;;;;23.83;15.30;;;;;;;;;;5093298;28;20949;-66
2022/10/13 08:11:45;;;;;;;20.17;14.20;;;;;;;;;;5093466;28;20883;-66
2022/10/13 08:14:13;;;;;;;19.10;15.20;;;;;;;;;;5093591;28;20445;-66
2022/10/13 08:16:44;;;;;;;20.67;15.27;;;;;;;;;;5094149;28;20443;-66
2022/10/13 08:19:11;;;;;;;21.47;13.90;;;;;;;;;;5093740;28;20454;-65
2022/10/13 08:21:40;;;;;;;24.70;14.10;;;;;;;;;;5092997;28;20567;-66
2022/10/13 08:24:07;;;;;;;19.40;14.30;;;;;;;;;;5093523;28;20464;-66
2022/10/13 08:26:35;;;;;;;20.73;13.83;;;;;;;;;;5093470;28;20529;-66
2022/10/13 08:29:02;;;;;;;20.40;14.30;;;;;;;;;;5093271;28;20457;-66
2022/10/13 08:31:29;;;;;;;19.33;13.40;;;;;;;;;;5093077;28;20452;-66
2022/10/13 08:33:56;;;;;;;17.60;12.90;;;;;;;;;;5093010;28;20443;-66
2022/10/13 08:36:24;;;;;;;14.40;12.90;;;;;;;;;;5093630;28;20489;-65
2022/10/13 08:38:53;;;;;;;21.20;13.73;;;;;;;;;;5093084;28;20942;-66
2022/10/13 08:41:21;;;;;;;17.13;13.27;;;;;;;;;;5093543;28;21035;-66
2022/10/13 08:43:50;;;;;;;24.80;14.73;;;;;;;;;;5093170;28;20858;-66
2022/10/13 08:46:19;;;;;;;19.63;12.13;;;;;;;;;;5093244;28;20801;-66
2022/10/13 08:48:46;;;;;;;22.60;13.33;;;;;;;;;;5092816;28;20953;-65
2022/10/13 08:51:16;;;;;;;25.17;13.77;;;;;;;;;;5093412;28;20445;-66
2022/10/13 08:53:45;;;;;;;25.53;13.90;;;;;;;;;;5092747;28;20436;-66
2022/10/13 08:56:18;;;;;;;25.93;13.63;;;;;;;;;;5093156;28;20487;-67
2022/10/13 08:58:46;;;;;;;26.73;14.07;;;;;;;;;;5093270;28;20422;-66
2022/10/13 09:01:14;;;;;;;16.17;12.73;;;;;;;;;;5096476;28;20575;-66
2022/10/13 09:03:47;;;;;;;15.20;10.97;;;;;;;;;;5096604;28;20436;-66
2022/10/13 09:06:16;;;;;;;18.73;11.83;;;;;;;;;;5097198;28;20824;-66
2022/10/13 09:08:44;;;;;;;22.23;13.27;;;;;;;;;;5096773;28;20445;-66
2022/10/13 09:11:13;;;;;;;18.50;13.63;;;;;;;;;;5097062;28;20448;-66
2022/10/13 09:13:41;;;;;;;17.10;12.00;;;;;;;;;;5096827;28;20441;-66
2022/10/13 09:16:09;;;;;;;17.80;12.37;;;;;;;;;;5096345;28;20461;-66
2022/10/13 09:18:37;;;;;;;23.63;11.93;;;;;;;;;;5096756;28;20454;-66
2022/10/13 09:21:11;;;;;;;19.73;14.80;;;;;;;;;;5096858;28;20477;-66
2022/10/13 09:23:38;;;;;;;21.37;12.37;;;;;;;;;;5095974;28;21056;-66
2022/10/13 09:26:08;;;;;;;16.57;12.10;;;;;;;;;;5096452;28;20920;-67
2022/10/13 09:28:35;;;;;;;21.30;12.27;;;;;;;;;;5096363;28;20463;-67
2022/10/13 09:31:05;;;;;;;17.30;12.87;;;;;;;;;;5096402;28;20448;-66
2022/10/13 09:33:35;;;;;;;19.87;13.13;;;;;;;;;;5096586;28;20488;-66
2022/10/13 09:36:09;;;;;;;18.80;12.03;;;;;;;;;;5096831;28;20536;-66
2022/10/13 09:38:37;;;;;;;15.67;11.90;;;;;;;;;;5095847;28;20504;-66
2022/10/13 09:41:06;;;;;;;23.13;13.83;;;;;;;;;;5095803;28;20986;-66
2022/10/13 09:43:34;;;;;;;25.30;14.87;;;;;;;;;;5095680;28;20453;-66
2022/10/13 09:46:03;;;;;;;23.40;12.70;;;;;;;;;;5095679;28;20451;-66
2022/10/13 09:48:33;;;;;;;18.03;12.83;;;;;;;;;;5095864;28;20441;-66
2022/10/13 09:51:01;;;;;;;22.40;13.77;;;;;;;;;;5096351;28;20458;-66
2022/10/13 09:53:31;;;;;;;18.07;13.53;;;;;;;;;;5095921;28;20499;-66
2022/10/13 09:56:09;;;;;;;20.23;11.80;;;;;;;;;;5095527;28;20536;-66
2022/10/13 09:58:38;;;;;;;17.17;12.97;;;;;;;;;;5095460;28;20452;-66
2022/10/13 10:01:06;;;;;;;26.60;12.50;;;;;;;;;;5095657;28;21096;-66
2022/10/13 10:03:36;;;;;;;20.23;13.23;;;;;;;;;;5095701;28;20452;-66
2022/10/13 10:06:04;;;;;;;17.57;12.23;;;;;;;;;;5095872;28;20451;-66
2022/10/13 10:08:35;;;;;;;19.17;13.77;;;;;;;;;;5095570;28;20452;-66
2022/10/13 10:11:03;;;;;;;25.93;14.47;;;;;;;;;;5094982;28;20433;-66
2022/10/13 10:13:30;;;;;;;19.13;12.13;;;;;;;;;;5095503;28;20449;-67
2022/10/13 10:16:01;;;;;;;20.80;13.07;;;;;;;;;;5095566;28;20442;-66
2022/10/13 10:18:34;;;;;;;17.70;13.17;;;;;;;;;;5095159;28;20433;-66
2022/10/13 10:21:05;;;;;;;18.27;13.27;;;;;;;;;;5095697;28;20492;-66
2022/10/13 10:23:42;;;;;;;20.37;14.90;;;;;;;;;;5094876;28;20937;-66
2022/10/13 10:26:13;;;;;;;22.60;13.20;;;;;;;;;;5095697;28;20431;-66
2022/10/13 10:28:48;;;;;;;25.23;13.90;;;;;;;;;;5095433;28;20434;-66
2022/10/13 10:31:21;;;;;;;20.23;13.50;;;;;;;;;;5094982;28;20438;-66
2022/10/13 10:33:56;;;;;;;16.47;12.60;;;;;;;;;;5094961;28;20441;-66
2022/10/13 10:36:27;;;;;;;18.17;13.53;;;;;;;;;;5095039;28;20451;-66
2022/10/13 10:38:59;;;;;;;20.13;12.47;;;;;;;;;;5095250;28;20447;-66
2022/10/13 10:41:37;;;;;;;23.23;13.30;;;;;;;;;;5095364;28;20467;-66
2022/10/13 10:44:08;;;;;;;19.47;12.77;;;;;;;;;;5095146;28;20444;-66
2022/10/13 10:46:36;;;;;;;23.33;11.70;;;;;;;;;;5094961;28;20426;-65
2022/10/13 10:49:05;;;;;;;19.23;13.47;;;;;;;;;;5094928;28;20439;-65
2022/10/13 10:51:36;;;;;;;16.07;12.10;;;;;;;;;;5095790;28;20784;-66
2022/10/13 10:54:07;;;;;;;19.07;13.33;;;;;;;;;;5094799;28;20437;-66
2022/10/13 10:56:37;;;;;;;21.43;12.73;;;;;;;;;;5094979;28;20439;-66
2022/10/13 10:59:16;;;;;;;13.90;11.97;;;;;;;;;;5094264;28;20510;-66
2022/10/13 11:01:47;;;;;;;14.57;11.93;;;;;;;;;;5095393;28;20567;-66
2022/10/13 11:04:31;;;;;;;15.80;11.00;;;;;;;;;;5094437;28;20501;-66
2022/10/13 11:07:00;;;;;;;18.27;11.93;;;;;;;;;;5094352;28;20546;-66
2022/10/13 11:09:46;;;;;;;20.57;12.50;;;;;;;;;;5094404;28;20434;-66
2022/10/13 11:12:22;;;;;;;17.37;11.60;;;;;;;;;;5094445;28;20944;-66
2022/10/13 11:15:02;;;;;;;16.43;10.97;;;;;;;;;;5094576;28;20446;-66
2022/10/13 11:17:30;;;;;;;15.47;11.67;;;;;;;;;;5094550;28;20455;-65
2022/10/13 11:19:58;;;;;;;21.57;12.20;;;;;;;;;;5094281;28;20799;-66
2022/10/13 11:22:27;;;;;;;14.87;12.23;;;;;;;;;;5093637;28;20977;-66
2022/10/13 11:24:56;;;;;;;16.00;10.93;;;;;;;;;;5094443;28;20472;-66
2022/10/13 11:27:28;;;;;;;15.83;10.97;;;;;;;;;;5094124;28;20459;-66
2022/10/13 11:29:57;;;;;;;17.73;11.70;;;;;;;;;;5094009;28;20445;-66
2022/10/13 11:32:53;;;;;;;18.13;11.90;;;;;;;;;;5094116;28;20448;-67
2022/10/13 11:35:23;;;;;;;13.77;10.50;;;;;;;;;;5094050;28;20906;-66
2022/10/13 11:37:55;;;;;;;17.13;11.33;;;;;;;;;;5093973;28;20802;-66
2022/10/13 11:40:24;;;;;;;15.83;10.30;;;;;;;;;;5093925;28;20440;-66
2022/10/13 11:42:56;;;;;;;17.87;11.43;;;;;;;;;;5093915;28;20480;-66
2022/10/13 11:45:27;;;;;;;16.60;11.40;;;;;;;;;;5094152;28;20426;-66
2022/10/13 11:48:05;;;;;;;17.23;12.03;;;;;;;;;;5094090;28;20779;-66
2022/10/13 11:50:37;;;;;;;17.37;11.07;;;;;;;;;;5094203;28;20442;-66
2022/10/13 11:53:12;;;;;;;15.37;9.83;;;;;;;;;;5093567;28;20445;-66
2022/10/13 11:55:44;;;;;;;13.17;9.33;;;;;;;;;;5093860;28;20438;-66
2022/10/13 11:58:15;;;;;;;21.07;9.90;;;;;;;;;;5093674;28;20912;-66
2022/10/13 12:00:50;;;;;;;18.57;11.13;;;;;;;;;;5093352;28;20429;-66
2022/10/13 12:03:21;;;;;;;15.07;9.97;;;;;;;;;;5094022;28;20471;-66
2022/10/13 12:05:49;;;;;;;14.53;10.13;;;;;;;;;;5093985;28;20929;-66
2022/10/13 12:08:19;;;;;;;15.93;9.53;;;;;;;;;;5093312;28;20452;-66
2022/10/13 12:10:47;;;;;;;12.20;7.80;;;;;;;;;;5093791;28;20444;-66
2022/10/13 12:13:21;;;;;;;10.40;8.17;;;;;;;;;;5093792;28;20450;-66
2022/10/13 12:15:48;;;;;;;9.93;8.30;;;;;;;;;;5094044;28;20432;-67
2022/10/13 12:18:20;;;;;;;15.20;9.90;;;;;;;;;;5093223;28;20444;-66
2022/10/13 12:20:52;;;;;;;11.03;8.70;;;;;;;;;;5093414;28;20537;-67
2022/10/13 12:23:21;;;;;;;13.23;9.10;;;;;;;;;;5093465;28;20853;-67
2022/10/13 12:25:55;;;;;;;9.90;8.50;;;;;;;;;;5093863;28;20479;-66
2022/10/13 12:28:22;;;;;;;9.67;8.67;;;;;;;;;;5093215;28;20444;-66
2022/10/13 12:30:52;;;;;;;10.50;9.10;;;;;;;;;;5093087;28;20457;-66
2022/10/13 12:33:23;;;;;;;13.90;7.77;;;;;;;;;;5093367;28;20808;-66
2022/10/13 12:35:50;;;;;;;9.93;7.90;;;;;;;;;;5096357;28;20452;-66
2022/10/13 12:38:19;;;;;;;16.90;7.70;;;;;;;;;;5097831;28;20804;-66
2022/10/13 12:40:50;;;;;;;14.57;9.20;;;;;;;;;;5097191;28;20443;-66
2022/10/13 12:43:19;;;;;;;15.80;8.93;;;;;;;;;;5097539;28;20466;-65
2022/10/13 12:45:46;;;;;;;14.37;7.63;;;;;;;;;;5097785;28;20440;-65
2022/10/13 12:48:30;;;;;;;12.73;9.23;;;;;;;;;;5096912;28;20931;-65
2022/10/13 12:51:07;;;;;;;13.77;8.23;;;;;;;;;;5097071;28;20437;-66
2022/10/13 12:53:34;;;;;;;14.43;7.33;;;;;;;;;;5097959;28;20443;-65
2022/10/13 12:56:04;;;;;;;10.37;7.97;;;;;;;;;;5096629;28;20443;-65
2022/10/13 12:58:32;;;;;;;10.83;8.50;;;;;;;;;;5096969;28;20445;-65
2022/10/13 13:01:09;;;;;;;12.60;7.40;;;;;;;;;;5097145;28;20526;-66
2022/10/13 13:03:37;;;;;;;10.93;7.40;;;;;;;;;;5097165;28;20552;-66
2022/10/13 13:06:08;;;;;;;8.73;7.23;;;;;;;;;;5096548;28;20816;-66
2022/10/13 13:08:36;;;;;;;12.20;7.33;;;;;;;;;;5088641;28;20447;-66
2022/10/13 13:11:06;;;;;;;11.00;7.17;;;;;;;;;;5075729;28;20537;-65
2022/10/13 13:13:34;;;;;;;7.63;6.30;;;;;;;;;;5075972;28;20434;-65
2022/10/13 13:16:14;;;;;;;14.03;7.37;;;;;;;;;;5075769;28;20448;-66
2022/10/13 13:18:41;;;;;;;9.27;8.37;;;;;;;;;;5076391;28;20449;-65
2022/10/13 13:21:09;;;;;;;12.57;8.53;;;;;;;;;;5075748;28;20504;-65
2022/10/13 13:23:36;;;;;;;10.00;6.90;;;;;;;;;;5075419;28;20484;-65
2022/10/13 13:26:11;;;;;;;13.87;6.80;;;;;;;;;;5075801;28;20504;-65
2022/10/13 13:28:38;;;;;;;13.00;7.47;;;;;;;;;;5075748;28;20983;-66
2022/10/13 13:31:06;;;;;;;10.43;6.50;;;;;;;;;;5075803;28;20450;-66
2022/10/13 13:33:33;;;;;;;12.50;7.20;;;;;;;;;;5075558;28;20456;-65
2022/10/13 13:36:00;;;;;;;7.90;5.90;;;;;;;;;;5075621;28;20468;-66
2022/10/13 13:38:27;;;;;;;16.00;7.93;;;;;;;;;;5075198;28;20944;-65
2022/10/13 13:40:55;;;;;;;9.10;6.83;;;;;;;;;;5074932;28;20957;-66
2022/10/13 13:43:23;;;;;;;9.53;8.00;;;;;;;;;;5075287;28;20983;-65
2022/10/13 13:45:50;;;;;;;13.10;8.63;;;;;;;;;;5075266;28;20457;-66
2022/10/13 13:48:18;;;;;;;11.50;7.97;;;;;;;;;;5075619;28;20441;-65
2022/10/13 13:50:45;;;;;;;13.13;7.70;;;;;;;;;;5075606;28;20443;-65
2022/10/13 13:53:12;;;;;;;11.37;8.97;;;;;;;;;;5074865;28;20455;-66
2022/10/13 13:55:39;;;;;;;12.10;8.80;;;;;;;;;;5074595;28;20931;-66
2022/10/13 13:58:06;;;;;;;12.23;8.20;;;;;;;;;;5074842;28;20449;-66
2022/10/13 14:00:35;;;;;;;14.43;9.90;;;;;;;;;;5075225;28;20449;-66
2022/10/13 14:03:02;;;;;;;14.13;8.80;;;;;;;;;;5075042;28;20476;-65
2022/10/13 14:05:29;;;;;;;13.70;8.90;;;;;;;;;;5075161;28;20447;-66
2022/10/13 14:07:57;;;;;;;12.63;10.10;;;;;;;;;;5074916;28;20888;-65
2022/10/13 14:10:25;;;;;;;18.30;11.47;;;;;;;;;;5075502;28;20451;-66
2022/10/13 14:12:52;;;;;;;14.00;11.07;;;;;;;;;;5075156;28;20479;-65
2022/10/13 14:15:19;;;;;;;18.13;10.40;;;;;;;;;;5075335;28;20827;-65
2022/10/13 14:17:48;;;;;;;17.57;11.13;;;;;;;;;;5075138;28;20533;-65
2022/10/13 14:20:15;;;;;;;19.60;11.67;;;;;;;;;;5074824;28;20959;-65
2022/10/13 14:22:42;;;;;;;19.53;10.07;;;;;;;;;;5074597;28;20823;-65
2022/10/13 14:25:10;;;;;;;22.37;12.23;;;;;;;;;;5074828;28;20476;-66
2022/10/13 14:27:38;;;;;;;17.93;12.30;;;;;;;;;;5075061;28;20445;-65
2022/10/13 14:30:05;;;;;;;15.30;10.97;;;;;;;;;;5074480;28;20539;-65